Villa Maria, Puerto Rico
Current Conditions -  °F | °C
As of 9:56 AM on Monday 24 Nov 2014 (Local Time) from TJSJ Reporting Station
Scattered Clouds Scattered Clouds  
Wind Chill: 82°   Ceiling: Unl
Heat Index: 89°   Visibility: 10mi
Dew Point: 76°   Wind: 17mph
Humidity: 82%   Direction: 70°ENE
Pressure: 30.08"   Gusts: NA
Location:  18.2361°N, 66.0369°W
Report Text: TJSJ 241356Z 07015KT 10SM FEW027 SCT037 SCT045 28/24 A3008 RMK AO2 RAB23E55 SLP184 VCSH W P0001 T02780244
Loading
Personal Weather Stations






























Interactive Weather Map New forecast layout! Learn more

10-Day Weather Forecast

Advertisements
Track Severe Weather on mobile